Time;durP1;ratioP1;P1;durP2;ratioP2;P2;SDS_P1;SDS_P2;PMS_P1;PMS_P2;Temp;Humidity;BMP_temperature;BMP_pressure;BME280_temperature;BME280_humidity;BME280_pressure;Samples;Min_cycle;Max_cycle;Signal;HPM_P1;HPM_P2
2023/02/17 00:01:22;;;;;;;7.03;2.30;;;31.30;87.40;;;;;;5052452;28;20028;-61
2023/02/17 00:03:51;;;;;;;12.35;3.97;;;31.80;84.00;;;;;;5052514;28;20104;-61
2023/02/17 00:06:21;;;;;;;8.82;2.22;;;31.60;85.00;;;;;;5052389;28;20033;-61
2023/02/17 00:08:49;;;;;;;6.35;1.42;;;32.10;84.80;;;;;;5052351;28;20021;-62
2023/02/17 00:11:17;;;;;;;5.85;2.03;;;32.30;78.30;;;;;;5052131;28;20078;-61
2023/02/17 00:13:45;;;;;;;6.53;1.30;;;32.30;77.10;;;;;;5052210;28;20029;-61
2023/02/17 00:16:23;;;;;;;3.83;1.55;;;32.50;81.60;;;;;;5052327;28;20023;-61
2023/02/17 00:18:55;;;;;;;5.57;1.13;;;32.80;82.90;;;;;;5052684;28;20079;-62
2023/02/17 00:21:26;;;;;;;5.43;1.27;;;33.00;76.80;;;;;;5052054;28;20415;-61
2023/02/17 00:23:53;;;;;;;4.63;1.25;;;33.00;75.40;;;;;;5052112;28;20036;-61
2023/02/17 00:26:22;;;;;;;3.95;1.33;;;33.30;77.90;;;;;;5051982;28;20037;-61
2023/02/17 00:28:50;;;;;;;4.72;1.20;;;33.60;72.80;;;;;;5051997;28;20040;-61
2023/02/17 00:31:20;;;;;;;7.68;1.40;;;33.20;68.20;;;;;;5051819;28;20086;-61
2023/02/17 00:33:48;;;;;;;12.07;1.30;;;32.80;72.30;;;;;;5051690;28;20393;-61
2023/02/17 00:36:19;;;;;;;6.00;2.15;;;32.70;69.70;;;;;;5051946;28;20049;-61
2023/02/17 00:38:47;;;;;;;6.28;1.85;;;32.50;69.90;;;;;;5051889;28;20109;-62
2023/02/17 00:41:16;;;;;;;4.18;1.20;;;32.50;73.40;;;;;;5051176;28;20107;-61
2023/02/17 00:43:43;;;;;;;3.72;1.52;;;32.80;69.70;;;;;;5051823;28;20025;-61
2023/02/17 00:46:11;;;;;;;4.40;1.15;;;33.10;71.70;;;;;;5051661;28;20031;-61
2023/02/17 00:48:38;;;;;;;4.25;1.23;;;33.40;66.30;;;;;;5051611;28;20037;-62
2023/02/17 00:51:06;;;;;;;7.22;1.23;;;33.20;66.00;;;;;;5051617;28;20023;-62
2023/02/17 00:53:33;;;;;;;5.70;1.40;;;33.30;65.20;;;;;;5051667;28;20033;-63
2023/02/17 00:56:01;;;;;;;4.40;1.65;;;33.40;65.00;;;;;;5051834;28;20074;-61
2023/02/17 00:58:29;;;;;;;3.53;1.25;;;33.40;62.60;;;;;;5051889;28;20048;-61
2023/02/17 01:00:57;;;;;;;5.50;0.90;;;33.50;60.50;;;;;;5051356;28;20154;-61
2023/02/17 01:03:25;;;;;;;7.32;1.40;;;33.80;65.00;;;;;;5051337;28;20025;-62
2023/02/17 01:05:54;;;;;;;5.00;1.20;;;34.00;59.10;;;;;;5051375;28;20021;-61
2023/02/17 01:08:23;;;;;;;3.53;1.20;;;33.70;58.60;;;;;;5051527;28;20543;-62
2023/02/17 01:10:51;;;;;;;2.45;1.00;;;33.60;61.20;;;;;;5051099;28;20021;-62
2023/02/17 01:13:19;;;;;;;4.18;1.25;;;33.40;61.00;;;;;;5049605;28;20041;-62
2023/02/17 01:15:52;;;;;;;6.57;1.70;;;33.20;59.70;;;;;;5051141;28;20017;-62
2023/02/17 01:18:23;;;;;;;3.95;1.42;;;33.20;59.30;;;;;;5051012;28;20024;-62
2023/02/17 01:20:51;;;;;;;3.45;1.10;;;33.20;59.40;;;;;;5050932;28;20029;-62
2023/02/17 01:23:19;;;;;;;3.63;1.02;;;33.10;61.60;;;;;;5050930;28;20051;-62
2023/02/17 01:25:49;;;;;;;5.47;1.20;;;33.10;59.00;;;;;;5050729;28;20430;-62
2023/02/17 01:28:19;;;;;;;3.42;1.80;;;32.90;62.30;;;;;;5051021;28;20064;-62
2023/02/17 01:30:48;;;;;;;3.83;1.20;;;33.10;61.40;;;;;;5050781;28;20029;-62
2023/02/17 01:33:16;;;;;;;5.47;1.23;;;33.60;65.00;;;;;;5050781;28;20082;-62
2023/02/17 01:35:43;;;;;;;3.67;1.02;;;34.00;66.20;;;;;;5050775;28;20104;-62
2023/02/17 01:38:11;;;;;;;2.60;0.85;;;34.20;58.20;;;;;;5050711;28;20102;-62
2023/02/17 01:40:45;;;;;;;4.95;1.20;;;34.50;61.00;;;;;;5050423;28;20159;-61
2023/02/17 01:43:16;;;;;;;4.30;1.30;;;34.80;56.70;;;;;;5049227;28;20024;-62
2023/02/17 01:45:54;;;;;;;2.85;1.05;;;35.00;59.30;;;;;;5050568;28;20028;-62
2023/02/17 01:48:31;;;;;;;7.85;1.05;;;35.50;58.30;;;;;;5050422;28;20025;-62
2023/02/17 01:51:10;;;;;;;2.05;0.90;;;35.70;56.60;;;;;;5050447;28;20029;-61
2023/02/17 01:53:54;;;;;;;6.43;1.25;;;35.80;58.10;;;;;;5048420;28;20037;-61
2023/02/17 01:56:24;;;;;;;5.47;1.05;;;36.00;56.20;;;;;;5050426;28;20024;-61
2023/02/17 01:59:02;;;;;;;3.85;0.90;;;35.90;54.00;;;;;;5050207;28;20029;-62
2023/02/17 02:01:31;;;;;;;2.78;1.13;;;35.50;53.90;;;;;;5050301;28;20021;-61
2023/02/17 02:04:00;;;;;;;6.28;1.17;;;35.70;53.70;;;;;;5048995;28;20033;-61
2023/02/17 02:06:29;;;;;;;2.55;0.98;;;35.40;53.20;;;;;;5050174;28;20029;-61
2023/02/17 02:09:35;;;;;;;4.50;1.35;;;35.40;55.50;;;;;;5050119;28;20036;-61
2023/02/17 02:12:03;;;;;;;5.15;1.05;;;35.50;56.30;;;;;;5048808;28;20116;-62
2023/02/17 02:14:30;;;;;;;2.35;1.00;;;35.60;55.40;;;;;;5050073;28;20472;-62
2023/02/17 02:17:22;;;;;;;6.45;0.88;;;35.90;53.70;;;;;;5050083;28;20032;-62
2023/02/17 02:20:22;;;;;;;6.13;1.02;;;35.80;54.80;;;;;;5050043;28;20061;-62
2023/02/17 02:23:01;;;;;;;3.30;1.25;;;35.90;54.30;;;;;;5048673;28;20083;-62
2023/02/17 02:25:29;;;;;;;3.17;1.30;;;35.90;53.50;;;;;;5049879;28;20017;-62
2023/02/17 02:28:34;;;;;;;2.95;0.90;;;35.80;53.30;;;;;;5049913;28;20100;-62
2023/02/17 02:31:20;;;;;;;4.18;1.23;;;35.60;54.50;;;;;;5027914;28;20100;-62
2023/02/17 02:33:58;;;;;;;4.30;0.93;;;35.70;55.40;;;;;;5027570;28;20390;-61
2023/02/17 02:36:43;;;;;;;3.10;1.15;;;35.70;54.10;;;;;;5043189;28;20040;-61
2023/02/17 02:39:33;;;;;;;2.22;0.93;;;36.00;53.20;;;;;;5049535;28;20032;-61
2023/02/17 02:42:08;;;;;;;3.92;1.48;;;35.90;54.10;;;;;;5050165;28;20017;-62
2023/02/17 02:44:35;;;;;;;3.65;1.00;;;35.80;53.50;;;;;;5050118;28;20021;-64
2023/02/17 02:47:25;;;;;;;4.20;1.15;;;35.80;52.80;;;;;;5048832;28;20108;-62
2023/02/17 02:49:52;;;;;;;3.17;0.90;;;35.60;53.20;;;;;;5048000;28;20025;-62
2023/02/17 02:52:34;;;;;;;5.43;1.20;;;35.10;53.20;;;;;;5049581;28;20018;-62
2023/02/17 02:55:15;;;;;;;2.58;1.35;;;35.10;54.80;;;;;;5049839;28;20094;-62
2023/02/17 02:57:48;;;;;;;3.30;1.50;;;35.50;54.40;;;;;;5049381;28;20370;-62
2023/02/17 03:00:29;;;;;;;7.63;1.40;;;35.80;54.40;;;;;;5049671;28;20573;-63
2023/02/17 03:03:09;;;;;;;4.45;1.08;;;35.50;52.90;;;;;;5049489;28;20037;-63
2023/02/17 03:05:55;;;;;;;3.60;1.00;;;35.10;53.40;;;;;;5052397;28;20072;-63
2023/02/17 03:08:32;;;;;;;4.65;1.73;;;35.10;53.30;;;;;;5053375;28;20082;-63
2023/02/17 03:11:01;;;;;;;6.43;1.40;;;35.30;53.50;;;;;;5053476;28;20048;-62
2023/02/17 03:13:31;;;;;;;3.78;1.40;;;35.50;52.30;;;;;;5053366;28;20370;-62
2023/02/17 03:15:59;;;;;;;4.97;1.63;;;35.50;52.40;;;;;;5052180;28;20031;-62
2023/02/17 03:18:26;;;;;;;5.13;1.20;;;35.60;53.30;;;;;;5053389;28;20033;-62
2023/02/17 03:21:01;;;;;;;3.08;1.17;;;35.90;51.90;;;;;;5053212;28;20024;-63
2023/02/17 03:23:28;;;;;;;3.58;1.08;;;35.90;52.50;;;;;;5053265;28;20027;-62
2023/02/17 03:25:56;;;;;;;2.13;1.35;;;35.80;52.00;;;;;;5051987;28;20371;-62
2023/02/17 03:28:24;;;;;;;2.88;1.30;;;36.00;53.20;;;;;;5053606;28;20374;-63
2023/02/17 03:30:51;;;;;;;2.95;0.93;;;36.20;52.60;;;;;;5052808;28;20033;-63
2023/02/17 03:33:18;;;;;;;2.88;1.00;;;36.50;50.40;;;;;;5053061;28;20104;-63
2023/02/17 03:35:46;;;;;;;2.75;0.88;;;36.70;50.20;;;;;;5053011;28;20032;-63
2023/02/17 03:38:13;;;;;;;2.17;1.00;;;37.00;52.50;;;;;;5052831;28;20486;-63
2023/02/17 03:40:41;;;;;;;4.57;1.25;;;37.00;52.30;;;;;;5052901;28;20128;-63
2023/02/17 03:43:08;;;;;;;2.33;1.00;;;36.80;54.40;;;;;;5051742;28;20055;-63
2023/02/17 03:45:38;;;;;;;4.97;1.65;;;36.50;52.20;;;;;;5053177;28;20025;-63
2023/02/17 03:48:06;;;;;;;4.10;1.40;;;36.40;54.40;;;;;;5053356;28;20034;-63
2023/02/17 03:50:33;;;;;;;2.78;1.17;;;35.80;55.90;;;;;;5053040;28;20496;-63
2023/02/17 03:53:01;;;;;;;5.20;1.35;;;35.80;55.50;;;;;;5052692;28;20044;-63
2023/02/17 03:55:28;;;;;;;4.13;1.60;;;35.70;56.20;;;;;;5052640;28;20031;-63
2023/02/17 03:57:56;;;;;;;8.40;1.33;;;35.60;56.40;;;;;;5052442;28;20021;-63
2023/02/17 04:00:23;;;;;;;5.18;1.10;;;35.40;56.40;;;;;;5052513;28;20025;-63
2023/02/17 04:02:50;;;;;;;6.72;1.98;;;35.30;58.80;;;;;;5052545;28;20041;-63
2023/02/17 04:05:18;;;;;;;4.10;1.50;;;35.30;58.10;;;;;;5051114;28;20025;-64
2023/02/17 04:07:45;;;;;;;8.13;1.10;;;35.40;58.10;;;;;;5052529;28;20564;-63
2023/02/17 04:10:13;;;;;;;5.85;1.52;;;35.30;58.50;;;;;;5050862;28;20059;-63
2023/02/17 04:12:40;;;;;;;3.65;1.48;;;35.60;58.80;;;;;;5052180;28;20080;-64
2023/02/17 04:15:08;;;;;;;4.82;1.30;;;35.50;57.80;;;;;;5052369;28;20079;-63
2023/02/17 04:17:38;;;;;;;6.00;1.00;;;35.20;58.60;;;;;;5051857;28;20090;-63
2023/02/17 04:20:07;;;;;;;4.97;1.60;;;35.20;59.10;;;;;;5052658;28;20029;-63
2023/02/17 04:22:35;;;;;;;4.28;1.10;;;35.40;59.20;;;;;;5052698;28;20021;-63
2023/02/17 04:25:02;;;;;;;9.02;2.03;;;35.30;58.60;;;;;;5052107;28;20021;-62
2023/02/17 04:27:30;;;;;;;5.90;0.93;;;35.10;58.40;;;;;;5051947;28;20055;-63
2023/02/17 04:29:57;;;;;;;7.30;1.60;;;34.90;59.90;;;;;;5052068;28;20766;-63
2023/02/17 04:32:24;;;;;;;4.80;1.58;;;34.90;59.50;;;;;;5051707;28;20049;-63
2023/02/17 04:34:52;;;;;;;4.85;1.45;;;34.90;59.30;;;;;;5050550;28;20025;-63
2023/02/17 04:37:19;;;;;;;4.03;1.20;;;34.80;59.20;;;;;;5051931;28;20024;-63
2023/02/17 04:39:47;;;;;;;2.97;1.58;;;34.80;60.00;;;;;;5051555;28;20084;-63
2023/02/17 04:42:14;;;;;;;3.05;1.05;;;34.90;59.50;;;;;;5051877;28;20021;-63
2023/02/17 04:44:41;;;;;;;4.75;1.33;;;34.90;59.40;;;;;;5050497;28;20032;-63
2023/02/17 04:47:09;;;;;;;5.53;1.42;;;34.70;58.30;;;;;;5051738;28;20022;-63
2023/02/17 04:49:36;;;;;;;4.90;1.13;;;34.50;58.30;;;;;;5052047;28;20516;-63
2023/02/17 04:52:04;;;;;;;6.93;1.02;;;34.30;58.70;;;;;;5050663;28;20031;-63
2023/02/17 04:54:31;;;;;;;3.10;1.05;;;34.40;59.20;;;;;;5050208;28;20465;-63
2023/02/17 04:56:58;;;;;;;2.75;1.00;;;34.40;59.10;;;;;;5051481;28;20706;-63
2023/02/17 04:59:26;;;;;;;6.82;1.35;;;34.40;59.80;;;;;;5051451;28;20025;-62
2023/02/17 05:01:53;;;;;;;4.32;1.40;;;34.50;58.90;;;;;;5049997;28;20021;-63
2023/02/17 05:04:20;;;;;;;5.05;1.27;;;34.30;57.80;;;;;;5051356;28;20098;-63
2023/02/17 05:06:48;;;;;;;3.88;1.23;;;34.00;58.40;;;;;;5051305;28;20032;-63
2023/02/17 05:09:15;;;;;;;4.38;1.13;;;33.90;58.50;;;;;;5051004;28;20079;-63
2023/02/17 05:11:42;;;;;;;3.90;1.45;;;33.90;58.80;;;;;;5051322;28;20025;-63
2023/02/17 05:14:10;;;;;;;2.90;1.15;;;33.70;57.40;;;;;;5049665;28;20075;-63
2023/02/17 05:16:37;;;;;;;3.60;1.00;;;33.60;58.60;;;;;;5051697;28;20021;-63
2023/02/17 05:19:05;;;;;;;5.85;1.00;;;33.70;59.00;;;;;;5051527;28;20390;-63
2023/02/17 05:21:32;;;;;;;1.92;0.73;;;33.90;58.30;;;;;;5051020;28;20071;-63
2023/02/17 05:24:00;;;;;;;2.33;0.82;;;33.80;57.20;;;;;;5050875;28;20086;-63
2023/02/17 05:26:27;;;;;;;3.85;1.20;;;33.80;57.20;;;;;;5050971;28;20431;-63
2023/02/17 05:28:55;;;;;;;3.50;0.80;;;33.70;56.40;;;;;;5051001;28;20417;-63
2023/02/17 05:31:22;;;;;;;2.80;0.85;;;33.60;57.50;;;;;;5050734;28;20075;-63
2023/02/17 05:33:49;;;;;;;1.95;0.90;;;33.40;57.50;;;;;;5050674;28;20037;-63
2023/02/17 05:36:17;;;;;;;3.53;1.20;;;33.30;57.60;;;;;;5050893;28;20029;-63
2023/02/17 05:38:47;;;;;;;4.97;0.95;;;33.20;58.10;;;;;;5049198;28;20028;-63
2023/02/17 05:41:16;;;;;;;4.15;1.65;;;33.10;57.60;;;;;;5050782;28;20025;-63
2023/02/17 05:43:43;;;;;;;4.10;1.00;;;32.90;57.70;;;;;;5050616;28;20089;-63
2023/02/17 05:46:11;;;;;;;4.57;1.13;;;32.80;57.80;;;;;;5050643;28;20013;-63
2023/02/17 05:48:38;;;;;;;1.52;0.70;;;32.60;58.10;;;;;;5050912;28;20029;-63
2023/02/17 05:51:06;;;;;;;4.13;1.45;;;32.50;59.00;;;;;;5051058;28;20154;-63
2023/02/17 05:53:33;;;;;;;1.98;0.80;;;32.60;59.50;;;;;;5050522;28;20032;-63
2023/02/17 05:56:01;;;;;;;5.28;1.10;;;32.70;59.50;;;;;;5050370;28;20465;-64
2023/02/17 05:58:28;;;;;;;5.25;0.88;;;32.70;59.40;;;;;;5050323;28;20421;-63
2023/02/17 06:00:56;;;;;;;5.40;1.02;;;32.70;58.70;;;;;;5050716;28;20021;-63
2023/02/17 06:03:23;;;;;;;2.50;0.80;;;32.60;59.10;;;;;;5050353;28;20021;-63
2023/02/17 06:05:51;;;;;;;5.25;1.00;;;32.50;59.20;;;;;;5050256;28;20528;-63
2023/02/17 06:08:18;;;;;;;2.92;0.77;;;32.40;59.90;;;;;;5050125;28;20079;-63
2023/02/17 06:10:45;;;;;;;6.50;1.38;;;32.30;60.20;;;;;;5050435;28;20465;-63
2023/02/17 06:13:13;;;;;;;3.45;1.10;;;32.30;61.20;;;;;;5050033;28;20037;-63
2023/02/17 06:15:41;;;;;;;5.90;1.00;;;32.20;61.30;;;;;;5050186;28;20086;-64
2023/02/17 06:18:08;;;;;;;7.85;1.33;;;32.30;61.80;;;;;;5050538;28;20025;-64
2023/02/17 06:20:35;;;;;;;4.43;1.08;;;32.00;61.60;;;;;;5050424;28;20488;-63
2023/02/17 06:23:03;;;;;;;3.42;0.93;;;31.80;61.40;;;;;;5049834;28;20059;-63
2023/02/17 06:25:31;;;;;;;3.78;0.90;;;31.60;62.40;;;;;;5049264;28;20071;-63
2023/02/17 06:27:58;;;;;;;7.70;1.02;;;31.50;62.20;;;;;;5047769;28;20611;-64
2023/02/17 06:30:25;;;;;;;4.95;1.30;;;31.30;62.90;;;;;;5049193;28;20500;-63
2023/02/17 06:32:53;;;;;;;2.88;0.88;;;31.30;64.00;;;;;;5048871;28;20037;-63
2023/02/17 06:35:20;;;;;;;4.90;1.02;;;31.20;63.60;;;;;;5049122;28;20108;-63
2023/02/17 06:37:48;;;;;;;3.80;0.85;;;31.10;64.00;;;;;;5048852;28;20056;-62
2023/02/17 06:40:16;;;;;;;3.47;0.70;;;31.20;63.00;;;;;;5048621;28;20017;-63
2023/02/17 06:42:43;;;;;;;1.48;0.90;;;31.00;62.70;;;;;;5048949;28;20076;-62
2023/02/17 06:45:11;;;;;;;6.18;1.00;;;30.90;63.60;;;;;;5048966;28;20025;-63
2023/02/17 06:47:38;;;;;;;4.45;0.80;;;30.70;63.70;;;;;;5049275;28;20068;-63
2023/02/17 06:50:06;;;;;;;3.40;0.90;;;30.50;64.20;;;;;;5049334;28;20078;-63
2023/02/17 06:52:34;;;;;;;10.30;1.08;;;30.50;64.50;;;;;;5049052;28;20508;-63
2023/02/17 06:55:02;;;;;;;6.10;1.33;;;30.30;64.70;;;;;;5048845;28;20029;-64
2023/02/17 06:57:29;;;;;;;5.63;1.45;;;30.20;64.30;;;;;;5048846;28;20065;-63
2023/02/17 06:59:57;;;;;;;3.03;0.70;;;30.10;64.00;;;;;;5048757;28;20147;-63
2023/02/17 07:02:24;;;;;;;5.32;1.00;;;30.10;64.10;;;;;;5048736;28;20017;-63
2023/02/17 07:04:52;;;;;;;3.53;1.13;;;30.00;64.40;;;;;;5048800;28;20087;-63
2023/02/17 07:07:19;;;;;;;3.28;0.70;;;30.10;65.70;;;;;;5047240;28;20087;-64
2023/02/17 07:09:46;;;;;;;6.65;1.13;;;29.90;66.30;;;;;;5048466;28;20064;-63
2023/02/17 07:12:14;;;;;;;5.15;1.27;;;29.90;66.60;;;;;;5048448;28;20017;-63
2023/02/17 07:14:41;;;;;;;4.40;0.95;;;29.80;69.60;;;;;;5048748;28;20371;-63
2023/02/17 07:17:08;;;;;;;4.10;0.90;;;29.80;69.70;;;;;;5049034;28;20397;-62
2023/02/17 07:19:36;;;;;;;5.45;0.93;;;30.00;70.70;;;;;;5049044;28;20025;-63
2023/02/17 07:22:03;;;;;;;3.88;0.82;;;29.90;71.80;;;;;;5048477;28;20017;-63
2023/02/17 07:24:32;;;;;;;6.63;1.10;;;29.70;71.50;;;;;;5048544;28;20051;-64
2023/02/17 07:27:00;;;;;;;2.17;1.00;;;29.70;72.80;;;;;;5048637;28;20029;-63
2023/02/17 07:29:27;;;;;;;6.40;1.67;;;29.60;73.30;;;;;;5048550;28;20024;-63
2023/02/17 07:31:55;;;;;;;4.43;1.15;;;29.50;70.20;;;;;;5048464;28;20044;-63
2023/02/17 07:34:23;;;;;;;3.97;1.33;;;29.50;69.90;;;;;;5048435;28;20072;-63
2023/02/17 07:36:50;;;;;;;4.97;1.25;;;29.40;70.80;;;;;;5048282;28;20453;-63
2023/02/17 07:39:17;;;;;;;7.68;1.52;;;29.20;72.10;;;;;;5048471;28;20032;-61
2023/02/17 07:41:45;;;;;;;3.92;0.90;;;29.00;73.10;;;;;;5048442;28;20032;-62
2023/02/17 07:44:13;;;;;;;2.85;0.90;;;28.90;73.10;;;;;;5048410;28;20131;-63
2023/02/17 07:46:40;;;;;;;4.50;1.90;;;28.70;73.90;;;;;;5048649;28;20055;-64
2023/02/17 07:49:08;;;;;;;4.25;1.85;;;28.60;75.40;;;;;;5048693;28;20480;-63
2023/02/17 07:51:35;;;;;;;6.53;1.13;;;28.50;76.70;;;;;;5049321;28;20084;-63
2023/02/17 07:54:03;;;;;;;6.57;1.30;;;28.40;78.50;;;;;;5051717;28;20032;-62
2023/02/17 07:56:32;;;;;;;5.05;1.10;;;28.20;80.00;;;;;;5051846;28;20670;-63
2023/02/17 07:59:00;;;;;;;1.50;0.80;;;28.20;74.20;;;;;;5051991;28;20028;-62
2023/02/17 08:01:28;;;;;;;4.85;0.73;;;28.00;70.30;;;;;;5052012;28;20076;-64
2023/02/17 08:03:56;;;;;;;4.72;0.75;;;27.90;69.20;;;;;;5050751;28;20024;-63
2023/02/17 08:06:24;;;;;;;3.45;1.10;;;27.90;70.80;;;;;;5051818;28;20554;-61
2023/02/17 08:14:28;;;;;;;3.25;1.20;;;27.60;70.20;;;;;;5051625;28;20077;-63
2023/02/17 08:16:56;;;;;;;4.90;0.80;;;27.50;69.50;;;;;;5051729;28;20097;-62
2023/02/17 08:19:27;;;;;;;2.17;0.70;;;27.30;69.30;;;;;;5051541;28;20056;-62
2023/02/17 08:21:55;;;;;;;7.30;1.00;;;27.20;71.00;;;;;;5051471;28;20113;-65
2023/02/17 08:24:23;;;;;;;3.67;1.10;;;27.00;72.20;;;;;;5051609;28;20017;-62
2023/02/17 08:26:51;;;;;;;4.03;1.05;;;26.90;74.60;;;;;;5051284;28;20489;-62
2023/02/17 08:29:19;;;;;;;3.95;1.58;;;26.70;76.40;;;;;;5051459;28;20056;-63
2023/02/17 08:31:50;;;;;;;5.20;1.35;;;26.50;77.50;;;;;;5051132;28;20047;-63
2023/02/17 08:34:18;;;;;;;3.80;1.20;;;26.40;78.50;;;;;;5051231;28;20040;-63
2023/02/17 08:36:45;;;;;;;4.03;0.85;;;26.30;80.00;;;;;;5049774;28;20025;-63
2023/02/17 08:39:15;;;;;;;5.38;2.50;;;26.20;82.10;;;;;;5051033;28;20031;-64
2023/02/17 08:41:44;;;;;;;3.42;0.90;;;26.10;84.40;;;;;;5051084;28;20049;-63
2023/02/17 08:44:17;;;;;;;3.92;0.82;;;25.90;86.30;;;;;;5052031;28;20083;-65
2023/02/17 08:46:47;;;;;;;5.45;1.00;;;25.80;88.80;;;;;;5051879;28;20031;-63
2023/02/17 08:49:16;;;;;;;6.50;1.85;;;25.70;90.90;;;;;;5050375;28;20029;-64
2023/02/17 08:51:44;;;;;;;5.07;0.68;;;25.60;91.90;;;;;;5051426;28;20024;-64
2023/02/17 08:54:12;;;;;;;4.13;0.88;;;25.50;93.50;;;;;;5051923;28;20071;-63
2023/02/17 08:56:41;;;;;;;2.40;0.73;;;25.40;95.00;;;;;;5052050;28;20049;-64
2023/02/17 08:59:10;;;;;;;3.63;1.10;;;25.30;96.30;;;;;;5051943;28;20056;-64
2023/02/17 09:01:38;;;;;;;2.95;0.85;;;25.10;97.20;;;;;;5051619;28;20047;-64
2023/02/17 09:04:08;;;;;;;4.43;0.93;;;25.00;98.30;;;;;;5051228;28;20017;-63
2023/02/17 09:06:40;;;;;;;3.50;0.80;;;24.80;99.80;;;;;;5050077;28;20477;-63
2023/02/17 09:09:10;;;;;;;4.93;1.42;;;24.70;99.90;;;;;;5051620;28;20021;-63
2023/02/17 09:11:38;;;;;;;5.13;1.38;;;24.60;99.90;;;;;;5051609;28;20046;-63
2023/02/17 09:14:07;;;;;;;3.13;0.93;;;24.60;99.90;;;;;;5049821;28;20495;-63
2023/02/17 09:16:34;;;;;;;4.95;1.58;;;24.50;99.90;;;;;;5051139;28;20025;-63
2023/02/17 09:19:01;;;;;;;5.32;1.15;;;24.40;99.90;;;;;;5050927;28;20025;-63
2023/02/17 09:21:29;;;;;;;6.20;1.13;;;24.30;99.90;;;;;;5050956;28;20032;-63
2023/02/17 09:23:57;;;;;;;6.00;2.35;;;24.30;99.90;;;;;;5050993;28;20056;-63
2023/02/17 09:26:24;;;;;;;4.90;1.25;;;24.20;99.90;;;;;;5050936;28;20382;-63
2023/02/17 09:28:52;;;;;;;5.80;1.98;;;24.30;99.90;;;;;;5050848;28;20557;-63
2023/02/17 09:31:23;;;;;;;6.53;1.30;;;24.30;99.90;;;;;;5050697;28;20409;-63
2023/02/17 09:33:51;;;;;;;6.15;1.77;;;24.20;99.90;;;;;;5050808;28;20497;-63
2023/02/17 09:36:24;;;;;;;4.18;1.48;;;24.20;99.90;;;;;;5050682;28;20032;-63
2023/02/17 09:38:53;;;;;;;3.38;1.02;;;24.10;99.90;;;;;;5050652;28;20028;-63
2023/02/17 09:41:34;;;;;;;5.22;1.30;;;24.00;99.90;;;;;;5050695;28;20028;-63
2023/02/17 09:44:04;;;;;;;6.50;1.30;;;24.00;99.90;;;;;;5050630;28;20029;-63
2023/02/17 09:46:46;;;;;;;4.32;1.08;;;23.90;99.90;;;;;;5050584;28;20020;-63
2023/02/17 09:49:24;;;;;;;4.55;1.38;;;23.90;99.90;;;;;;5050441;28;20025;-63
2023/02/17 09:52:00;;;;;;;2.78;0.80;;;23.80;99.90;;;;;;5050333;28;20663;-63
2023/02/17 09:54:48;;;;;;;3.22;0.85;;;23.80;99.90;;;;;;5050359;28;20112;-63
2023/02/17 09:57:20;;;;;;;4.88;1.20;;;23.70;99.90;;;;;;5050496;28;20092;-63
2023/02/17 09:59:56;;;;;;;4.00;0.73;;;23.60;99.90;;;;;;5050539;28;20021;-63
2023/02/17 10:02:46;;;;;;;4.65;0.80;;;23.50;99.90;;;;;;5050358;28;20017;-63
2023/02/17 10:05:18;;;;;;;3.30;1.38;;;23.50;99.90;;;;;;5050388;28;20046;-63
2023/02/17 10:08:05;;;;;;;4.05;0.70;;;23.50;99.90;;;;;;5050249;28;20369;-63
2023/02/17 10:11:05;;;;;;;5.05;0.90;;;23.60;99.90;;;;;;5050267;28;20520;-63
2023/02/17 10:13:36;;;;;;;4.00;1.13;;;23.60;99.90;;;;;;5033896;28;20041;-63
2023/02/17 10:16:09;;;;;;;5.85;0.90;;;23.60;99.90;;;;;;5049638;28;20028;-63
2023/02/17 10:18:43;;;;;;;3.35;0.55;;;23.60;99.90;;;;;;5050044;28;20521;-63
2023/02/17 10:21:26;;;;;;;2.50;0.82;;;23.50;99.90;;;;;;5050373;28;20040;-63
2023/02/17 10:23:53;;;;;;;4.25;1.23;;;23.50;99.90;;;;;;5050008;28;20414;-62
2023/02/17 10:26:39;;;;;;;3.50;0.80;;;23.50;99.90;;;;;;5049974;28;20032;-62
2023/02/17 10:29:19;;;;;;;5.55;1.00;;;23.40;99.90;;;;;;5049965;28;20129;-63
2023/02/17 10:32:10;;;;;;;3.60;0.73;;;23.40;99.90;;;;;;5049619;28;20475;-63
2023/02/17 10:34:56;;;;;;;6.53;1.10;;;23.40;99.90;;;;;;5050213;28;20060;-62
2023/02/17 10:37:27;;;;;;;3.97;1.00;;;23.30;99.90;;;;;;5049644;28;20032;-62
2023/02/17 10:40:01;;;;;;;6.03;1.00;;;23.30;99.90;;;;;;5048671;28;20444;-62
2023/02/17 10:42:31;;;;;;;3.37;0.90;;;23.20;99.90;;;;;;5048580;28;20563;-62
2023/02/17 10:45:23;;;;;;;3.63;0.88;;;23.10;99.90;;;;;;5049874;28;20025;-62
2023/02/17 10:48:05;;;;;;;4.78;1.20;;;23.10;99.90;;;;;;5049701;28;20021;-62
2023/02/17 10:50:34;;;;;;;3.78;0.80;;;23.00;99.90;;;;;;5048308;28;20025;-62
2023/02/17 10:53:01;;;;;;;5.03;0.85;;;22.90;99.90;;;;;;5049508;28;20033;-62
2023/02/17 10:56:02;;;;;;;2.60;1.00;;;22.80;99.90;;;;;;5049645;28;20025;-62
2023/02/17 10:58:58;;;;;;;3.00;1.25;;;22.70;99.90;;;;;;5046410;28;20033;-63
2023/02/17 11:01:28;;;;;;;4.55;1.20;;;22.60;99.90;;;;;;5049560;28;20067;-63
2023/02/17 11:04:09;;;;;;;3.95;1.08;;;22.50;99.90;;;;;;5049524;28;20025;-62
2023/02/17 11:06:49;;;;;;;7.45;1.30;;;22.40;99.90;;;;;;5049443;28;20075;-62
2023/02/17 11:09:31;;;;;;;4.68;1.00;;;22.40;99.90;;;;;;5049489;28;20033;-63
2023/02/17 11:12:02;;;;;;;3.83;1.00;;;22.20;99.90;;;;;;5049467;28;20021;-63
2023/02/17 11:14:32;;;;;;;3.22;1.10;;;22.10;99.90;;;;;;5049418;28;20116;-62
2023/02/17 11:17:17;;;;;;;6.10;1.00;;;22.00;99.90;;;;;;5049408;28;20025;-62
2023/02/17 11:20:05;;;;;;;8.77;1.27;;;22.00;99.90;;;;;;5049496;28;20417;-63
2023/02/17 11:22:43;;;;;;;6.32;2.03;;;22.10;99.90;;;;;;5049218;28;20116;-62
2023/02/17 11:25:25;;;;;;;3.10;1.00;;;22.20;99.90;;;;;;5049815;28;20021;-62
2023/02/17 11:27:55;;;;;;;3.78;1.30;;;22.30;99.90;;;;;;5053170;28;20111;-63
2023/02/17 11:30:25;;;;;;;4.68;1.15;;;22.30;99.90;;;;;;5053130;28;20104;-63
2023/02/17 11:32:54;;;;;;;5.78;1.35;;;22.40;99.90;;;;;;5052772;28;20049;-63
2023/02/17 11:35:28;;;;;;;6.13;2.00;;;22.50;99.90;;;;;;5053031;28;20090;-63
2023/02/17 11:38:03;;;;;;;9.15;1.30;;;22.60;99.90;;;;;;5052910;28;20355;-63
2023/02/17 11:40:32;;;;;;;4.22;1.15;;;22.50;99.90;;;;;;5052931;28;20021;-63
2023/02/17 11:43:01;;;;;;;5.53;1.10;;;22.50;99.90;;;;;;5052976;28;20032;-63
2023/02/17 11:45:37;;;;;;;5.72;1.10;;;22.40;99.90;;;;;;5052923;28;20021;-63
2023/02/17 11:48:37;;;;;;;4.20;0.90;;;22.40;99.90;;;;;;5052986;28;20025;-63
2023/02/17 11:51:19;;;;;;;2.95;1.48;;;22.30;99.90;;;;;;5052576;28;20021;-63
2023/02/17 11:53:46;;;;;;;4.68;1.27;;;22.40;99.90;;;;;;5052763;28;20029;-63
2023/02/17 11:56:25;;;;;;;7.55;1.45;;;22.50;99.90;;;;;;5053231;28;20020;-63
2023/02/17 11:59:11;;;;;;;6.78;2.08;;;22.40;99.90;;;;;;5052676;28;20021;-63
2023/02/17 12:02:07;;;;;;;3.95;1.10;;;22.30;99.90;;;;;;5052796;28;20025;-63
2023/02/17 12:04:52;;;;;;;6.13;1.35;;;22.20;99.90;;;;;;5052474;28;20390;-63
2023/02/17 12:07:58;;;;;;;6.30;1.67;;;22.20;99.90;;;;;;5052493;28;20037;-63
2023/02/17 12:10:55;;;;;;;3.47;1.35;;;22.10;99.90;;;;;;5052516;28;20108;-63
2023/02/17 12:13:34;;;;;;;3.28;1.17;;;22.00;99.90;;;;;;5052220;28;20483;-63
2023/02/17 12:16:22;;;;;;;6.85;1.45;;;22.00;99.90;;;;;;5052341;28;20024;-63
2023/02/17 12:19:12;;;;;;;4.45;1.40;;;22.00;99.90;;;;;;5052289;28;20494;-63
2023/02/17 12:22:24;;;;;;;4.38;1.10;;;22.00;99.90;;;;;;5052149;28;20029;-62
2023/02/17 12:25:16;;;;;;;4.95;1.55;;;22.00;99.90;;;;;;5042077;28;20047;-63
2023/02/17 12:27:55;;;;;;;4.97;1.45;;;21.90;99.90;;;;;;5052539;28;20031;-62
2023/02/17 12:30:52;;;;;;;6.32;2.15;;;21.80;99.90;;;;;;5052118;28;20044;-63
2023/02/17 12:33:32;;;;;;;6.82;2.13;;;21.80;99.90;;;;;;5043770;28;20062;-63
2023/02/17 12:36:07;;;;;;;5.38;2.05;;;21.80;99.90;;;;;;5051960;28;20021;-63
2023/02/17 12:38:57;;;;;;;5.30;1.27;;;21.80;99.90;;;;;;5051133;28;20028;-64
2023/02/17 12:42:10;;;;;;;3.13;1.10;;;21.80;99.90;;;;;;5051725;28;20103;-63
2023/02/17 12:44:50;;;;;;;7.30;1.75;;;21.80;99.90;;;;;;5046975;28;20029;-63
2023/02/17 12:47:29;;;;;;;5.95;1.70;;;21.80;99.90;;;;;;5051827;28;20024;-63
2023/02/17 12:50:16;;;;;;;5.20;1.50;;;21.70;99.90;;;;;;5050401;28;20490;-62
2023/02/17 12:52:48;;;;;;;4.35;1.50;;;21.50;99.90;;;;;;5051941;28;20036;-62
2023/02/17 12:55:21;;;;;;;3.55;1.30;;;21.40;99.90;;;;;;5052191;28;20071;-62
2023/02/17 12:58:30;;;;;;;4.00;1.50;;;21.30;99.90;;;;;;5051524;28;20029;-63
2023/02/17 13:01:09;;;;;;;6.28;2.50;;;21.20;99.90;;;;;;5028977;28;20332;-62
2023/02/17 13:03:37;;;;;;;5.93;1.58;;;21.10;99.90;;;;;;5050185;28;20298;-63
2023/02/17 13:06:22;;;;;;;5.25;1.80;;;21.00;99.90;;;;;;5051197;28;20017;-63
2023/02/17 13:09:16;;;;;;;8.13;2.22;;;20.90;99.90;;;;;;5051375;28;20017;-63
2023/02/17 13:11:44;;;;;;;7.55;1.73;;;20.80;99.90;;;;;;5051872;28;20111;-63
2023/02/17 13:14:38;;;;;;;6.40;2.30;;;20.90;99.90;;;;;;5051270;28;20064;-63
2023/02/17 13:17:06;;;;;;;11.43;2.43;;;20.80;99.90;;;;;;5051299;28;20017;-63
2023/02/17 13:19:35;;;;;;;18.90;2.58;;;20.80;99.90;;;;;;5051080;28;20027;-63